sensor_id;sensor_type;location;lat;lon;timestamp;P1;durP1;ratioP1;P2;durP2;ratioP2
35907;SDS011;22003;50.320;8.054;2023-02-28T05:00:24;9.00;;;5.82;;
35907;SDS011;22003;50.320;8.054;2023-02-28T05:02:50;9.68;;;6.22;;
35907;SDS011;22003;50.320;8.054;2023-02-28T05:05:15;8.40;;;5.75;;
35907;SDS011;22003;50.320;8.054;2023-02-28T05:07:43;11.50;;;5.78;;
35907;SDS011;22003;50.320;8.054;2023-02-28T05:10:09;16.52;;;6.18;;
35907;SDS011;22003;50.320;8.054;2023-02-28T05:12:35;8.65;;;5.75;;
35907;SDS011;22003;50.320;8.054;2023-02-28T05:15:00;12.95;;;6.35;;
35907;SDS011;22003;50.320;8.054;2023-02-28T05:17:27;10.57;;;6.53;;
35907;SDS011;22003;50.320;8.054;2023-02-28T05:19:52;10.57;;;5.78;;
35907;SDS011;22003;50.320;8.054;2023-02-28T05:22:17;9.82;;;5.93;;
35907;SDS011;22003;50.320;8.054;2023-02-28T05:24:42;10.15;;;6.55;;
35907;SDS011;22003;50.320;8.054;2023-02-28T05:27:07;11.38;;;7.22;;
35907;SDS011;22003;50.320;8.054;2023-02-28T05:29:33;11.80;;;6.80;;
35907;SDS011;22003;50.320;8.054;2023-02-28T05:31:59;10.50;;;6.28;;
35907;SDS011;22003;50.320;8.054;2023-02-28T05:34:24;11.65;;;7.07;;
35907;SDS011;22003;50.320;8.054;2023-02-28T05:36:49;11.50;;;6.65;;
35907;SDS011;22003;50.320;8.054;2023-02-28T05:39:14;11.23;;;6.53;;
35907;SDS011;22003;50.320;8.054;2023-02-28T05:41:40;12.32;;;6.68;;
35907;SDS011;22003;50.320;8.054;2023-02-28T05:44:06;12.30;;;7.18;;
35907;SDS011;22003;50.320;8.054;2023-02-28T05:46:32;9.95;;;6.47;;
35907;SDS011;22003;50.320;8.054;2023-02-28T05:48:57;10.77;;;6.22;;
35907;SDS011;22003;50.320;8.054;2023-02-28T05:51:24;12.75;;;6.70;;
35907;SDS011;22003;50.320;8.054;2023-02-28T05:53:50;13.50;;;6.97;;
35907;SDS011;22003;50.320;8.054;2023-02-28T05:56:15;11.02;;;6.63;;
35907;SDS011;22003;50.320;8.054;2023-02-28T05:58:40;9.18;;;6.05;;
35907;SDS011;22003;50.320;8.054;2023-02-28T06:01:19;14.35;;;6.47;;
35907;SDS011;22003;50.320;8.054;2023-02-28T06:03:50;11.10;;;7.18;;
35907;SDS011;22003;50.320;8.054;2023-02-28T06:06:15;10.77;;;7.07;;
35907;SDS011;22003;50.320;8.054;2023-02-28T06:08:41;12.25;;;7.03;;
35907;SDS011;22003;50.320;8.054;2023-02-28T06:11:08;11.63;;;6.68;;
35907;SDS011;22003;50.320;8.054;2023-02-28T06:13:34;13.40;;;7.25;;
35907;SDS011;22003;50.320;8.054;2023-02-28T06:16:02;11.25;;;6.57;;
35907;SDS011;22003;50.320;8.054;2023-02-28T06:18:27;13.80;;;6.82;;
35907;SDS011;22003;50.320;8.054;2023-02-28T06:20:53;11.75;;;6.85;;
35907;SDS011;22003;50.320;8.054;2023-02-28T06:23:20;12.85;;;6.72;;
35907;SDS011;22003;50.320;8.054;2023-02-28T06:25:45;11.75;;;7.05;;
35907;SDS011;22003;50.320;8.054;2023-02-28T06:28:11;14.38;;;6.10;;
35907;SDS011;22003;50.320;8.054;2023-02-28T06:30:37;15.30;;;7.15;;
35907;SDS011;22003;50.320;8.054;2023-02-28T06:33:02;10.00;;;6.03;;
35907;SDS011;22003;50.320;8.054;2023-02-28T06:35:27;14.32;;;6.15;;
35907;SDS011;22003;50.320;8.054;2023-02-28T06:37:53;9.80;;;6.70;;
35907;SDS011;22003;50.320;8.054;2023-02-28T06:40:18;10.57;;;6.03;;
35907;SDS011;22003;50.320;8.054;2023-02-28T06:42:43;12.10;;;6.75;;
35907;SDS011;22003;50.320;8.054;2023-02-28T06:45:09;10.88;;;6.82;;
35907;SDS011;22003;50.320;8.054;2023-02-28T06:47:36;12.38;;;6.45;;
35907;SDS011;22003;50.320;8.054;2023-02-28T06:50:05;11.73;;;6.57;;
35907;SDS011;22003;50.320;8.054;2023-02-28T06:52:32;8.93;;;5.97;;
35907;SDS011;22003;50.320;8.054;2023-02-28T06:54:57;10.00;;;6.45;;
35907;SDS011;22003;50.320;8.054;2023-02-28T06:57:29;11.00;;;6.18;;
35907;SDS011;22003;50.320;8.054;2023-02-28T06:59:58;10.25;;;6.22;;
35907;SDS011;22003;50.320;8.054;2023-02-28T07:02:25;10.52;;;6.70;;
35907;SDS011;22003;50.320;8.054;2023-02-28T07:04:51;9.43;;;5.13;;
35907;SDS011;22003;50.320;8.054;2023-02-28T07:07:16;10.57;;;6.38;;
35907;SDS011;22003;50.320;8.054;2023-02-28T07:09:41;11.27;;;6.00;;
35907;SDS011;22003;50.320;8.054;2023-02-28T07:12:06;10.15;;;5.95;;
35907;SDS011;22003;50.320;8.054;2023-02-28T07:14:32;11.77;;;6.05;;
35907;SDS011;22003;50.320;8.054;2023-02-28T07:16:57;11.65;;;5.45;;
35907;SDS011;22003;50.320;8.054;2023-02-28T07:19:22;11.18;;;5.82;;
35907;SDS011;22003;50.320;8.054;2023-02-28T07:21:48;15.43;;;5.95;;
35907;SDS011;22003;50.320;8.054;2023-02-28T07:24:13;13.07;;;6.07;;
35907;SDS011;22003;50.320;8.054;2023-02-28T07:26:40;11.00;;;5.68;;
35907;SDS011;22003;50.320;8.054;2023-02-28T07:29:06;11.05;;;6.47;;
35907;SDS011;22003;50.320;8.054;2023-02-28T07:31:31;13.45;;;6.10;;
35907;SDS011;22003;50.320;8.054;2023-02-28T07:33:56;14.27;;;5.93;;
35907;SDS011;22003;50.320;8.054;2023-02-28T07:36:22;11.77;;;6.60;;
35907;SDS011;22003;50.320;8.054;2023-02-28T07:38:47;8.65;;;5.15;;
35907;SDS011;22003;50.320;8.054;2023-02-28T07:41:15;11.95;;;6.13;;
35907;SDS011;22003;50.320;8.054;2023-02-28T07:43:41;6.88;;;4.85;;
35907;SDS011;22003;50.320;8.054;2023-02-28T07:46:11;10.63;;;5.53;;
35907;SDS011;22003;50.320;8.054;2023-02-28T07:48:39;10.90;;;6.05;;
35907;SDS011;22003;50.320;8.054;2023-02-28T07:51:05;10.18;;;5.50;;
35907;SDS011;22003;50.320;8.054;2023-02-28T07:53:30;9.35;;;5.60;;
35907;SDS011;22003;50.320;8.054;2023-02-28T07:55:56;10.48;;;5.57;;
35907;SDS011;22003;50.320;8.054;2023-02-28T07:58:22;7.53;;;5.35;;
35907;SDS011;22003;50.320;8.054;2023-02-28T08:00:47;9.05;;;5.47;;
35907;SDS011;22003;50.320;8.054;2023-02-28T08:03:13;13.98;;;5.85;;
35907;SDS011;22003;50.320;8.054;2023-02-28T08:05:39;8.68;;;5.05;;
35907;SDS011;22003;50.320;8.054;2023-02-28T08:08:05;11.10;;;5.15;;
35907;SDS011;22003;50.320;8.054;2023-02-28T08:10:30;10.27;;;4.93;;
35907;SDS011;22003;50.320;8.054;2023-02-28T08:12:56;6.15;;;4.25;;
35907;SDS011;22003;50.320;8.054;2023-02-28T08:15:21;10.68;;;5.35;;
35907;SDS011;22003;50.320;8.054;2023-02-28T08:17:46;10.85;;;5.20;;
35907;SDS011;22003;50.320;8.054;2023-02-28T08:20:11;8.27;;;5.38;;
35907;SDS011;22003;50.320;8.054;2023-02-28T08:22:37;9.13;;;5.13;;
35907;SDS011;22003;50.320;8.054;2023-02-28T08:25:02;8.13;;;5.07;;
35907;SDS011;22003;50.320;8.054;2023-02-28T08:27:27;9.38;;;4.15;;
35907;SDS011;22003;50.320;8.054;2023-02-28T08:29:53;9.10;;;4.22;;
35907;SDS011;22003;50.320;8.054;2023-02-28T08:32:18;9.45;;;4.38;;
35907;SDS011;22003;50.320;8.054;2023-02-28T08:34:43;9.60;;;4.57;;
35907;SDS011;22003;50.320;8.054;2023-02-28T08:37:08;8.52;;;5.43;;
35907;SDS011;22003;50.320;8.054;2023-02-28T08:39:34;12.15;;;3.63;;
35907;SDS011;22003;50.320;8.054;2023-02-28T08:42:01;10.10;;;5.47;;
35907;SDS011;22003;50.320;8.054;2023-02-28T08:44:27;11.23;;;4.38;;
35907;SDS011;22003;50.320;8.054;2023-02-28T08:46:52;7.45;;;4.15;;
35907;SDS011;22003;50.320;8.054;2023-02-28T08:49:18;7.93;;;4.32;;
35907;SDS011;22003;50.320;8.054;2023-02-28T08:51:43;5.95;;;3.80;;
35907;SDS011;22003;50.320;8.054;2023-02-28T08:54:09;5.63;;;3.90;;
35907;SDS011;22003;50.320;8.054;2023-02-28T08:56:37;8.45;;;3.03;;
35907;SDS011;22003;50.320;8.054;2023-02-28T08:59:02;6.57;;;4.03;;
35907;SDS011;22003;50.320;8.054;2023-02-28T09:01:28;11.85;;;4.22;;
35907;SDS011;22003;50.320;8.054;2023-02-28T09:03:54;7.90;;;4.15;;
35907;SDS011;22003;50.320;8.054;2023-02-28T09:06:21;6.97;;;3.40;;
35907;SDS011;22003;50.320;8.054;2023-02-28T09:08:48;5.75;;;3.78;;
35907;SDS011;22003;50.320;8.054;2023-02-28T09:11:14;5.80;;;4.03;;
35907;SDS011;22003;50.320;8.054;2023-02-28T09:13:39;9.88;;;4.20;;
35907;SDS011;22003;50.320;8.054;2023-02-28T09:16:05;5.72;;;3.60;;
35907;SDS011;22003;50.320;8.054;2023-02-28T09:18:36;5.45;;;3.45;;
35907;SDS011;22003;50.320;8.054;2023-02-28T09:21:09;7.68;;;4.35;;
35907;SDS011;22003;50.320;8.054;2023-02-28T09:23:38;6.70;;;4.05;;
35907;SDS011;22003;50.320;8.054;2023-02-28T09:26:05;10.75;;;3.92;;
35907;SDS011;22003;50.320;8.054;2023-02-28T09:28:31;5.45;;;3.30;;
35907;SDS011;22003;50.320;8.054;2023-02-28T09:30:56;5.60;;;3.08;;
35907;SDS011;22003;50.320;8.054;2023-02-28T09:33:24;6.18;;;3.40;;
35907;SDS011;22003;50.320;8.054;2023-02-28T09:35:50;9.07;;;3.67;;
35907;SDS011;22003;50.320;8.054;2023-02-28T09:38:22;5.72;;;3.50;;
35907;SDS011;22003;50.320;8.054;2023-02-28T09:40:51;6.25;;;3.50;;
35907;SDS011;22003;50.320;8.054;2023-02-28T09:43:20;9.27;;;3.83;;
35907;SDS011;22003;50.320;8.054;2023-02-28T09:48:52;6.95;;;3.42;;
35907;SDS011;22003;50.320;8.054;2023-02-28T09:53:57;4.00;;;3.05;;
35907;SDS011;22003;50.320;8.054;2023-02-28T09:56:58;8.43;;;3.83;;
35907;SDS011;22003;50.320;8.054;2023-02-28T10:02:12;6.43;;;3.13;;
35907;SDS011;22003;50.320;8.054;2023-02-28T10:04:43;7.30;;;3.60;;
35907;SDS011;22003;50.320;8.054;2023-02-28T10:13:05;6.53;;;3.60;;
35907;SDS011;22003;50.320;8.054;2023-02-28T10:15:42;3.90;;;3.28;;
35907;SDS011;22003;50.320;8.054;2023-02-28T10:18:12;4.20;;;3.45;;
35907;SDS011;22003;50.320;8.054;2023-02-28T10:20:44;10.30;;;3.75;;
35907;SDS011;22003;50.320;8.054;2023-02-28T10:23:19;6.97;;;3.45;;
35907;SDS011;22003;50.320;8.054;2023-02-28T10:25:50;5.38;;;3.90;;
35907;SDS011;22003;50.320;8.054;2023-02-28T10:28:20;6.40;;;3.90;;
35907;SDS011;22003;50.320;8.054;2023-02-28T10:30:46;7.40;;;4.55;;
35907;SDS011;22003;50.320;8.054;2023-02-28T10:33:16;7.07;;;3.78;;
35907;SDS011;22003;50.320;8.054;2023-02-28T10:35:45;6.90;;;4.05;;
35907;SDS011;22003;50.320;8.054;2023-02-28T10:38:14;7.45;;;4.20;;
35907;SDS011;22003;50.320;8.054;2023-02-28T10:40:42;5.35;;;3.67;;
35907;SDS011;22003;50.320;8.054;2023-02-28T10:45:39;6.25;;;4.03;;
35907;SDS011;22003;50.320;8.054;2023-02-28T10:50:45;6.22;;;3.72;;
35907;SDS011;22003;50.320;8.054;2023-02-28T11:03:54;8.20;;;3.95;;
35907;SDS011;22003;50.320;8.054;2023-02-28T11:06:29;8.07;;;3.42;;
35907;SDS011;22003;50.320;8.054;2023-02-28T11:08:58;7.78;;;4.18;;
35907;SDS011;22003;50.320;8.054;2023-02-28T11:11:27;7.85;;;4.13;;
35907;SDS011;22003;50.320;8.054;2023-02-28T11:13:55;4.97;;;4.15;;
35907;SDS011;22003;50.320;8.054;2023-02-28T11:16:33;6.60;;;3.85;;
35907;SDS011;22003;50.320;8.054;2023-02-28T11:19:02;7.90;;;4.05;;
35907;SDS011;22003;50.320;8.054;2023-02-28T11:21:30;6.30;;;3.70;;
35907;SDS011;22003;50.320;8.054;2023-02-28T11:24:02;5.28;;;3.85;;
35907;SDS011;22003;50.320;8.054;2023-02-28T11:26:40;5.88;;;3.95;;
35907;SDS011;22003;50.320;8.054;2023-02-28T11:34:37;6.57;;;4.28;;
35907;SDS011;22003;50.320;8.054;2023-02-28T11:37:03;6.63;;;4.43;;
35907;SDS011;22003;50.320;8.054;2023-02-28T11:39:31;7.22;;;4.30;;
35907;SDS011;22003;50.320;8.054;2023-02-28T11:52:52;8.07;;;3.95;;
35907;SDS011;22003;50.320;8.054;2023-02-28T11:56:10;6.22;;;4.05;;
35907;SDS011;22003;50.320;8.054;2023-02-28T12:04:50;6.72;;;3.97;;
35907;SDS011;22003;50.320;8.054;2023-02-28T12:09:53;7.05;;;3.47;;
35907;SDS011;22003;50.320;8.054;2023-02-28T12:12:22;5.95;;;4.40;;
35907;SDS011;22003;50.320;8.054;2023-02-28T12:20:27;4.25;;;3.60;;
35907;SDS011;22003;50.320;8.054;2023-02-28T12:25:38;7.47;;;4.30;;
35907;SDS011;22003;50.320;8.054;2023-02-28T12:28:14;8.40;;;4.10;;
35907;SDS011;22003;50.320;8.054;2023-02-28T12:30:54;8.90;;;4.22;;
35907;SDS011;22003;50.320;8.054;2023-02-28T12:33:26;6.32;;;4.28;;
35907;SDS011;22003;50.320;8.054;2023-02-28T12:35:59;5.32;;;4.10;;
35907;SDS011;22003;50.320;8.054;2023-02-28T12:38:40;10.38;;;4.05;;
35907;SDS011;22003;50.320;8.054;2023-02-28T12:41:12;6.28;;;3.83;;
35907;SDS011;22003;50.320;8.054;2023-02-28T12:43:42;9.98;;;4.72;;
35907;SDS011;22003;50.320;8.054;2023-02-28T12:46:13;17.40;;;5.45;;
35907;SDS011;22003;50.320;8.054;2023-02-28T12:48:46;8.25;;;4.85;;
35907;SDS011;22003;50.320;8.054;2023-02-28T12:51:16;9.55;;;5.30;;
35907;SDS011;22003;50.320;8.054;2023-02-28T12:53:57;9.48;;;4.88;;
35907;SDS011;22003;50.320;8.054;2023-02-28T12:56:33;7.53;;;3.67;;
35907;SDS011;22003;50.320;8.054;2023-02-28T12:59:10;13.65;;;3.60;;
35907;SDS011;22003;50.320;8.054;2023-02-28T13:04:55;6.45;;;4.60;;
35907;SDS011;22003;50.320;8.054;2023-02-28T13:07:29;11.02;;;4.60;;
35907;SDS011;22003;50.320;8.054;2023-02-28T13:09:57;7.43;;;4.50;;
35907;SDS011;22003;50.320;8.054;2023-02-28T13:12:25;7.85;;;4.85;;
35907;SDS011;22003;50.320;8.054;2023-02-28T13:14:51;10.70;;;5.28;;
35907;SDS011;22003;50.320;8.054;2023-02-28T13:17:29;7.10;;;4.80;;
35907;SDS011;22003;50.320;8.054;2023-02-28T13:25:03;8.48;;;5.15;;
35907;SDS011;22003;50.320;8.054;2023-02-28T13:27:48;9.73;;;4.70;;
35907;SDS011;22003;50.320;8.054;2023-02-28T13:33:28;7.82;;;5.22;;
35907;SDS011;22003;50.320;8.054;2023-02-28T13:38:40;9.45;;;6.07;;
35907;SDS011;22003;50.320;8.054;2023-02-28T13:49:25;9.10;;;5.47;;
35907;SDS011;22003;50.320;8.054;2023-02-28T14:03:13;7.18;;;4.65;;
35907;SDS011;22003;50.320;8.054;2023-02-28T14:08:59;9.70;;;5.22;;
35907;SDS011;22003;50.320;8.054;2023-02-28T14:11:30;9.25;;;4.18;;
35907;SDS011;22003;50.320;8.054;2023-02-28T14:14:02;8.70;;;4.93;;
35907;SDS011;22003;50.320;8.054;2023-02-28T14:16:36;7.50;;;5.10;;
35907;SDS011;22003;50.320;8.054;2023-02-28T14:19:12;8.02;;;4.05;;
35907;SDS011;22003;50.320;8.054;2023-02-28T14:27:42;6.85;;;4.75;;
35907;SDS011;22003;50.320;8.054;2023-02-28T14:33:23;18.23;;;5.80;;
35907;SDS011;22003;50.320;8.054;2023-02-28T14:38:42;8.60;;;4.70;;
35907;SDS011;22003;50.320;8.054;2023-02-28T14:41:15;9.32;;;5.18;;
35907;SDS011;22003;50.320;8.054;2023-02-28T14:43:51;8.85;;;4.85;;
35907;SDS011;22003;50.320;8.054;2023-02-28T14:46:19;8.02;;;5.22;;
35907;SDS011;22003;50.320;8.054;2023-02-28T14:48:46;6.70;;;4.82;;
35907;SDS011;22003;50.320;8.054;2023-02-28T14:51:13;5.35;;;4.03;;
35907;SDS011;22003;50.320;8.054;2023-02-28T14:53:44;7.43;;;4.85;;
35907;SDS011;22003;50.320;8.054;2023-02-28T14:56:20;6.30;;;4.32;;
35907;SDS011;22003;50.320;8.054;2023-02-28T14:59:02;12.97;;;4.90;;
35907;SDS011;22003;50.320;8.054;2023-02-28T15:01:27;7.40;;;4.50;;
35907;SDS011;22003;50.320;8.054;2023-02-28T15:04:01;7.22;;;4.60;;
35907;SDS011;22003;50.320;8.054;2023-02-28T15:06:29;7.10;;;4.70;;
35907;SDS011;22003;50.320;8.054;2023-02-28T15:09:15;8.98;;;5.03;;
35907;SDS011;22003;50.320;8.054;2023-02-28T15:11:42;7.95;;;4.72;;
35907;SDS011;22003;50.320;8.054;2023-02-28T15:14:15;7.65;;;5.07;;
35907;SDS011;22003;50.320;8.054;2023-02-28T15:16:44;7.88;;;4.55;;
35907;SDS011;22003;50.320;8.054;2023-02-28T15:21:45;6.13;;;4.15;;
35907;SDS011;22003;50.320;8.054;2023-02-28T15:24:16;7.97;;;4.80;;
35907;SDS011;22003;50.320;8.054;2023-02-28T15:26:50;7.70;;;4.97;;
35907;SDS011;22003;50.320;8.054;2023-02-28T15:29:20;7.70;;;5.00;;
35907;SDS011;22003;50.320;8.054;2023-02-28T15:32:04;8.63;;;5.60;;
35907;SDS011;22003;50.320;8.054;2023-02-28T15:36:59;7.60;;;4.82;;
35907;SDS011;22003;50.320;8.054;2023-02-28T15:39:26;8.13;;;4.43;;
35907;SDS011;22003;50.320;8.054;2023-02-28T15:42:09;6.43;;;4.38;;
35907;SDS011;22003;50.320;8.054;2023-02-28T15:44:42;11.07;;;5.25;;
35907;SDS011;22003;50.320;8.054;2023-02-28T15:47:14;8.38;;;5.13;;
35907;SDS011;22003;50.320;8.054;2023-02-28T15:49:54;10.57;;;5.18;;
35907;SDS011;22003;50.320;8.054;2023-02-28T15:52:43;7.03;;;4.93;;
35907;SDS011;22003;50.320;8.054;2023-02-28T15:55:20;6.78;;;4.85;;
35907;SDS011;22003;50.320;8.054;2023-02-28T15:57:48;9.23;;;5.25;;
35907;SDS011;22003;50.320;8.054;2023-02-28T16:00:19;8.90;;;5.15;;
35907;SDS011;22003;50.320;8.054;2023-02-28T16:02:49;8.60;;;5.20;;
35907;SDS011;22003;50.320;8.054;2023-02-28T16:05:19;6.75;;;5.05;;
35907;SDS011;22003;50.320;8.054;2023-02-28T16:07:46;8.00;;;4.88;;
35907;SDS011;22003;50.320;8.054;2023-02-28T16:10:13;6.72;;;5.00;;
35907;SDS011;22003;50.320;8.054;2023-02-28T16:12:39;8.90;;;5.10;;
35907;SDS011;22003;50.320;8.054;2023-02-28T16:15:09;6.90;;;4.97;;
35907;SDS011;22003;50.320;8.054;2023-02-28T16:17:43;12.77;;;5.95;;
35907;SDS011;22003;50.320;8.054;2023-02-28T16:20:13;8.40;;;5.78;;
35907;SDS011;22003;50.320;8.054;2023-02-28T16:22:41;6.65;;;4.90;;
35907;SDS011;22003;50.320;8.054;2023-02-28T16:25:08;7.50;;;5.10;;
35907;SDS011;22003;50.320;8.054;2023-02-28T16:27:36;7.65;;;5.00;;
35907;SDS011;22003;50.320;8.054;2023-02-28T16:30:03;6.95;;;4.93;;
35907;SDS011;22003;50.320;8.054;2023-02-28T16:34:56;8.90;;;5.72;;
35907;SDS011;22003;50.320;8.054;2023-02-28T16:37:22;9.05;;;5.70;;
35907;SDS011;22003;50.320;8.054;2023-02-28T16:39:47;11.38;;;5.85;;
35907;SDS011;22003;50.320;8.054;2023-02-28T16:42:16;9.00;;;6.00;;
35907;SDS011;22003;50.320;8.054;2023-02-28T16:44:48;8.50;;;5.55;;
35907;SDS011;22003;50.320;8.054;2023-02-28T16:47:13;10.85;;;5.88;;
35907;SDS011;22003;50.320;8.054;2023-02-28T16:49:39;11.73;;;6.18;;
35907;SDS011;22003;50.320;8.054;2023-02-28T16:52:06;10.88;;;5.68;;
35907;SDS011;22003;50.320;8.054;2023-02-28T16:54:32;10.20;;;5.97;;
35907;SDS011;22003;50.320;8.054;2023-02-28T16:56:57;7.65;;;4.93;;
35907;SDS011;22003;50.320;8.054;2023-02-28T16:59:23;9.93;;;5.28;;
35907;SDS011;22003;50.320;8.054;2023-02-28T17:01:50;11.02;;;6.35;;
35907;SDS011;22003;50.320;8.054;2023-02-28T17:04:17;10.82;;;5.43;;
35907;SDS011;22003;50.320;8.054;2023-02-28T17:06:42;11.63;;;5.78;;
35907;SDS011;22003;50.320;8.054;2023-02-28T17:09:10;8.60;;;5.25;;
35907;SDS011;22003;50.320;8.054;2023-02-28T17:11:42;13.75;;;6.10;;
35907;SDS011;22003;50.320;8.054;2023-02-28T17:14:07;9.18;;;5.15;;
35907;SDS011;22003;50.320;8.054;2023-02-28T17:16:33;8.75;;;6.47;;
35907;SDS011;22003;50.320;8.054;2023-02-28T17:19:03;10.48;;;6.10;;
35907;SDS011;22003;50.320;8.054;2023-02-28T17:21:30;12.40;;;6.15;;
35907;SDS011;22003;50.320;8.054;2023-02-28T17:23:56;8.77;;;5.65;;
35907;SDS011;22003;50.320;8.054;2023-02-28T17:26:22;10.57;;;5.72;;
35907;SDS011;22003;50.320;8.054;2023-02-28T17:28:52;8.70;;;5.10;;
35907;SDS011;22003;50.320;8.054;2023-02-28T17:31:20;9.20;;;5.28;;
35907;SDS011;22003;50.320;8.054;2023-02-28T17:33:46;8.95;;;5.70;;
35907;SDS011;22003;50.320;8.054;2023-02-28T17:36:16;10.85;;;5.28;;
35907;SDS011;22003;50.320;8.054;2023-02-28T17:38:46;10.85;;;6.10;;
35907;SDS011;22003;50.320;8.054;2023-02-28T17:41:12;9.43;;;6.03;;
35907;SDS011;22003;50.320;8.054;2023-02-28T17:43:37;8.43;;;6.28;;
35907;SDS011;22003;50.320;8.054;2023-02-28T17:46:03;10.52;;;5.45;;
35907;SDS011;22003;50.320;8.054;2023-02-28T17:48:30;10.77;;;6.47;;
35907;SDS011;22003;50.320;8.054;2023-02-28T17:50:56;11.43;;;6.47;;
35907;SDS011;22003;50.320;8.054;2023-02-28T17:53:21;11.45;;;6.38;;
35907;SDS011;22003;50.320;8.054;2023-02-28T17:55:48;8.23;;;6.13;;
35907;SDS011;22003;50.320;8.054;2023-02-28T17:58:14;13.40;;;6.22;;
35907;SDS011;22003;50.320;8.054;2023-02-28T18:00:39;9.70;;;5.88;;
35907;SDS011;22003;50.320;8.054;2023-02-28T18:03:05;9.75;;;6.60;;
35907;SDS011;22003;50.320;8.054;2023-02-28T18:05:30;10.70;;;6.22;;
35907;SDS011;22003;50.320;8.054;2023-02-28T18:07:56;11.48;;;6.43;;
35907;SDS011;22003;50.320;8.054;2023-02-28T18:10:21;14.85;;;6.65;;
35907;SDS011;22003;50.320;8.054;2023-02-28T18:12:47;12.18;;;6.43;;
35907;SDS011;22003;50.320;8.054;2023-02-28T18:15:14;11.18;;;6.25;;
35907;SDS011;22003;50.320;8.054;2023-02-28T18:17:41;11.68;;;6.45;;
35907;SDS011;22003;50.320;8.054;2023-02-28T18:20:08;9.88;;;6.13;;
35907;SDS011;22003;50.320;8.054;2023-02-28T18:22:35;9.15;;;6.75;;
35907;SDS011;22003;50.320;8.054;2023-02-28T18:25:05;11.38;;;6.63;;
35907;SDS011;22003;50.320;8.054;2023-02-28T18:27:33;11.85;;;7.03;;
35907;SDS011;22003;50.320;8.054;2023-02-28T18:29:58;12.18;;;5.95;;
35907;SDS011;22003;50.320;8.054;2023-02-28T18:32:24;16.15;;;7.57;;
35907;SDS011;22003;50.320;8.054;2023-02-28T18:34:49;11.80;;;7.40;;
35907;SDS011;22003;50.320;8.054;2023-02-28T18:37:14;13.55;;;7.93;;
35907;SDS011;22003;50.320;8.054;2023-02-28T18:42:07;18.25;;;9.23;;
35907;SDS011;22003;50.320;8.054;2023-02-28T18:44:32;27.63;;;11.35;;
35907;SDS011;22003;50.320;8.054;2023-02-28T18:46:58;21.10;;;10.40;;
35907;SDS011;22003;50.320;8.054;2023-02-28T18:49:23;23.40;;;10.18;;
35907;SDS011;22003;50.320;8.054;2023-02-28T18:51:49;14.43;;;8.77;;
35907;SDS011;22003;50.320;8.054;2023-02-28T18:54:14;18.58;;;9.25;;
35907;SDS011;22003;50.320;8.054;2023-02-28T18:56:41;16.23;;;10.02;;
35907;SDS011;22003;50.320;8.054;2023-02-28T18:59:06;15.82;;;8.75;;
35907;SDS011;22003;50.320;8.054;2023-02-28T19:01:32;12.20;;;8.25;;
35907;SDS011;22003;50.320;8.054;2023-02-28T19:03:58;12.80;;;7.93;;
35907;SDS011;22003;50.320;8.054;2023-02-28T19:06:25;14.27;;;7.88;;
35907;SDS011;22003;50.320;8.054;2023-02-28T19:08:53;13.88;;;8.43;;
35907;SDS011;22003;50.320;8.054;2023-02-28T19:11:20;15.07;;;8.30;;
35907;SDS011;22003;50.320;8.054;2023-02-28T19:13:46;16.77;;;8.75;;
35907;SDS011;22003;50.320;8.054;2023-02-28T19:16:12;28.27;;;9.88;;
35907;SDS011;22003;50.320;8.054;2023-02-28T19:18:40;13.48;;;8.85;;
35907;SDS011;22003;50.320;8.054;2023-02-28T19:21:06;17.92;;;10.18;;
35907;SDS011;22003;50.320;8.054;2023-02-28T19:23:34;23.40;;;11.43;;
35907;SDS011;22003;50.320;8.054;2023-02-28T19:26:00;19.75;;;10.10;;
35907;SDS011;22003;50.320;8.054;2023-02-28T19:28:30;18.42;;;10.25;;
35907;SDS011;22003;50.320;8.054;2023-02-28T19:30:55;18.52;;;10.63;;
35907;SDS011;22003;50.320;8.054;2023-02-28T19:33:20;22.13;;;11.27;;
35907;SDS011;22003;50.320;8.054;2023-02-28T19:35:46;19.77;;;11.07;;
35907;SDS011;22003;50.320;8.054;2023-02-28T19:38:12;20.75;;;12.27;;
35907;SDS011;22003;50.320;8.054;2023-02-28T19:40:37;18.70;;;10.82;;
35907;SDS011;22003;50.320;8.054;2023-02-28T19:43:03;16.45;;;9.68;;
35907;SDS011;22003;50.320;8.054;2023-02-28T19:45:28;16.92;;;11.13;;
35907;SDS011;22003;50.320;8.054;2023-02-28T19:47:54;16.48;;;9.52;;
35907;SDS011;22003;50.320;8.054;2023-02-28T19:50:20;18.40;;;10.32;;
35907;SDS011;22003;50.320;8.054;2023-02-28T19:52:46;21.65;;;10.93;;
35907;SDS011;22003;50.320;8.054;2023-02-28T19:55:13;17.98;;;10.60;;
35907;SDS011;22003;50.320;8.054;2023-02-28T19:57:39;18.60;;;10.93;;
35907;SDS011;22003;50.320;8.054;2023-02-28T20:00:05;19.98;;;11.57;;
35907;SDS011;22003;50.320;8.054;2023-02-28T20:02:31;19.80;;;11.45;;
35907;SDS011;22003;50.320;8.054;2023-02-28T20:04:56;22.00;;;13.00;;
35907;SDS011;22003;50.320;8.054;2023-02-28T20:07:21;18.75;;;10.48;;
35907;SDS011;22003;50.320;8.054;2023-02-28T20:09:47;17.67;;;10.85;;
35907;SDS011;22003;50.320;8.054;2023-02-28T20:12:13;18.75;;;11.80;;
35907;SDS011;22003;50.320;8.054;2023-02-28T20:14:40;18.77;;;10.80;;
35907;SDS011;22003;50.320;8.054;2023-02-28T20:17:06;25.45;;;12.93;;
35907;SDS011;22003;50.320;8.054;2023-02-28T20:19:31;19.55;;;10.60;;
35907;SDS011;22003;50.320;8.054;2023-02-28T20:21:57;17.45;;;11.23;;
35907;SDS011;22003;50.320;8.054;2023-02-28T20:24:22;21.80;;;12.18;;
35907;SDS011;22003;50.320;8.054;2023-02-28T20:26:50;20.65;;;11.57;;
35907;SDS011;22003;50.320;8.054;2023-02-28T20:29:16;21.55;;;12.38;;
35907;SDS011;22003;50.320;8.054;2023-02-28T20:31:41;20.40;;;11.05;;
35907;SDS011;22003;50.320;8.054;2023-02-28T20:34:07;16.55;;;10.50;;
35907;SDS011;22003;50.320;8.054;2023-02-28T20:36:32;18.40;;;11.07;;
35907;SDS011;22003;50.320;8.054;2023-02-28T20:38:57;19.73;;;11.88;;
35907;SDS011;22003;50.320;8.054;2023-02-28T20:41:23;21.58;;;12.82;;
35907;SDS011;22003;50.320;8.054;2023-02-28T20:43:52;21.67;;;12.63;;
35907;SDS011;22003;50.320;8.054;2023-02-28T20:46:18;21.50;;;12.52;;
35907;SDS011;22003;50.320;8.054;2023-02-28T20:48:44;18.80;;;12.05;;
35907;SDS011;22003;50.320;8.054;2023-02-28T20:51:09;22.25;;;11.73;;
35907;SDS011;22003;50.320;8.054;2023-02-28T20:53:34;21.23;;;12.00;;
35907;SDS011;22003;50.320;8.054;2023-02-28T20:58:37;26.35;;;12.93;;
35907;SDS011;22003;50.320;8.054;2023-02-28T21:01:04;29.48;;;14.50;;
35907;SDS011;22003;50.320;8.054;2023-02-28T21:03:36;24.33;;;12.77;;
35907;SDS011;22003;50.320;8.054;2023-02-28T21:06:03;22.02;;;12.40;;
35907;SDS011;22003;50.320;8.054;2023-02-28T21:08:28;29.33;;;15.32;;
35907;SDS011;22003;50.320;8.054;2023-02-28T21:10:54;58.83;;;25.33;;
35907;SDS011;22003;50.320;8.054;2023-02-28T21:13:19;52.15;;;24.25;;
35907;SDS011;22003;50.320;8.054;2023-02-28T21:15:44;39.60;;;20.30;;
35907;SDS011;22003;50.320;8.054;2023-02-28T21:18:09;57.85;;;25.48;;
35907;SDS011;22003;50.320;8.054;2023-02-28T21:20:35;59.55;;;25.70;;
35907;SDS011;22003;50.320;8.054;2023-02-28T21:23:00;64.18;;;28.60;;
35907;SDS011;22003;50.320;8.054;2023-02-28T21:25:25;28.95;;;15.40;;
35907;SDS011;22003;50.320;8.054;2023-02-28T21:27:51;44.17;;;20.27;;
35907;SDS011;22003;50.320;8.054;2023-02-28T21:30:19;52.60;;;26.25;;
35907;SDS011;22003;50.320;8.054;2023-02-28T21:32:45;51.72;;;23.65;;
35907;SDS011;22003;50.320;8.054;2023-02-28T21:35:10;40.47;;;17.58;;
35907;SDS011;22003;50.320;8.054;2023-02-28T21:37:36;45.05;;;21.92;;
35907;SDS011;22003;50.320;8.054;2023-02-28T21:40:02;60.92;;;28.23;;
35907;SDS011;22003;50.320;8.054;2023-02-28T21:42:27;64.82;;;31.27;;
35907;SDS011;22003;50.320;8.054;2023-02-28T21:44:53;52.53;;;24.88;;
35907;SDS011;22003;50.320;8.054;2023-02-28T21:47:21;44.58;;;21.15;;